sensor_id;sensor_type;location;lat;lon;timestamp;P1;durP1;ratioP1;P2;durP2;ratioP2
23617;SDS011;18207;32.078;34.818;2023-02-28T00:00:13;3.60;;;2.80;;
23617;SDS011;18207;32.078;34.818;2023-02-28T00:02:47;2.53;;;2.25;;
23617;SDS011;18207;32.078;34.818;2023-02-28T00:05:18;2.70;;;2.50;;
23617;SDS011;18207;32.078;34.818;2023-02-28T00:07:51;2.75;;;2.53;;
23617;SDS011;18207;32.078;34.818;2023-02-28T00:10:24;2.38;;;2.17;;
23617;SDS011;18207;32.078;34.818;2023-02-28T00:12:59;3.30;;;2.45;;
23617;SDS011;18207;32.078;34.818;2023-02-28T00:15:32;3.08;;;2.63;;
23617;SDS011;18207;32.078;34.818;2023-02-28T00:18:06;2.58;;;2.38;;
23617;SDS011;18207;32.078;34.818;2023-02-28T00:20:37;3.00;;;2.67;;
23617;SDS011;18207;32.078;34.818;2023-02-28T00:23:08;2.88;;;2.67;;
23617;SDS011;18207;32.078;34.818;2023-02-28T00:25:39;2.70;;;2.50;;
23617;SDS011;18207;32.078;34.818;2023-02-28T00:28:10;3.08;;;2.70;;
23617;SDS011;18207;32.078;34.818;2023-02-28T00:30:41;3.22;;;2.47;;
23617;SDS011;18207;32.078;34.818;2023-02-28T00:33:13;2.90;;;2.60;;
23617;SDS011;18207;32.078;34.818;2023-02-28T00:35:45;3.53;;;2.90;;
23617;SDS011;18207;32.078;34.818;2023-02-28T00:38:15;2.90;;;2.70;;
23617;SDS011;18207;32.078;34.818;2023-02-28T00:40:46;3.25;;;2.75;;
23617;SDS011;18207;32.078;34.818;2023-02-28T00:43:17;2.88;;;2.60;;
23617;SDS011;18207;32.078;34.818;2023-02-28T00:45:48;3.95;;;2.67;;
23617;SDS011;18207;32.078;34.818;2023-02-28T00:48:19;3.92;;;2.85;;
23617;SDS011;18207;32.078;34.818;2023-02-28T00:50:50;2.95;;;2.70;;
23617;SDS011;18207;32.078;34.818;2023-02-28T00:53:31;2.90;;;2.70;;
23617;SDS011;18207;32.078;34.818;2023-02-28T00:56:02;3.22;;;2.92;;
23617;SDS011;18207;32.078;34.818;2023-02-28T00:58:35;3.53;;;3.03;;
23617;SDS011;18207;32.078;34.818;2023-02-28T01:01:06;2.90;;;2.60;;
23617;SDS011;18207;32.078;34.818;2023-02-28T01:03:38;3.40;;;3.10;;
23617;SDS011;18207;32.078;34.818;2023-02-28T01:06:11;2.88;;;2.65;;
23617;SDS011;18207;32.078;34.818;2023-02-28T01:08:42;3.25;;;2.88;;
23617;SDS011;18207;32.078;34.818;2023-02-28T01:11:13;3.17;;;2.97;;
23617;SDS011;18207;32.078;34.818;2023-02-28T01:13:46;2.78;;;2.58;;
23617;SDS011;18207;32.078;34.818;2023-02-28T01:16:17;2.90;;;2.70;;
23617;SDS011;18207;32.078;34.818;2023-02-28T01:18:51;2.67;;;2.47;;
23617;SDS011;18207;32.078;34.818;2023-02-28T01:21:23;3.38;;;2.72;;
23617;SDS011;18207;32.078;34.818;2023-02-28T01:23:56;3.22;;;2.72;;
23617;SDS011;18207;32.078;34.818;2023-02-28T01:26:27;2.92;;;2.63;;
23617;SDS011;18207;32.078;34.818;2023-02-28T01:28:58;3.67;;;2.80;;
23617;SDS011;18207;32.078;34.818;2023-02-28T01:31:30;5.00;;;2.60;;
23617;SDS011;18207;32.078;34.818;2023-02-28T01:34:03;2.97;;;2.75;;
23617;SDS011;18207;32.078;34.818;2023-02-28T01:36:33;2.80;;;2.55;;
23617;SDS011;18207;32.078;34.818;2023-02-28T01:39:05;3.03;;;2.80;;
23617;SDS011;18207;32.078;34.818;2023-02-28T01:41:35;3.70;;;2.72;;
23617;SDS011;18207;32.078;34.818;2023-02-28T01:44:07;2.70;;;2.50;;
23617;SDS011;18207;32.078;34.818;2023-02-28T01:47:10;2.97;;;2.63;;
23617;SDS011;18207;32.078;34.818;2023-02-28T01:49:47;3.03;;;2.60;;
23617;SDS011;18207;32.078;34.818;2023-02-28T01:52:25;2.65;;;2.38;;
23617;SDS011;18207;32.078;34.818;2023-02-28T01:54:56;2.65;;;2.45;;
23617;SDS011;18207;32.078;34.818;2023-02-28T01:57:34;2.72;;;2.53;;
23617;SDS011;18207;32.078;34.818;2023-02-28T02:00:10;2.70;;;2.50;;
23617;SDS011;18207;32.078;34.818;2023-02-28T02:02:55;2.83;;;2.63;;
23617;SDS011;18207;32.078;34.818;2023-02-28T02:05:38;4.60;;;2.28;;
23617;SDS011;18207;32.078;34.818;2023-02-28T02:08:16;2.80;;;2.55;;
23617;SDS011;18207;32.078;34.818;2023-02-28T02:10:51;3.08;;;2.80;;
23617;SDS011;18207;32.078;34.818;2023-02-28T02:13:29;2.95;;;2.60;;
23617;SDS011;18207;32.078;34.818;2023-02-28T02:16:23;2.72;;;2.50;;
23617;SDS011;18207;32.078;34.818;2023-02-28T02:19:24;3.80;;;2.10;;
23617;SDS011;18207;32.078;34.818;2023-02-28T02:22:43;3.08;;;2.40;;
23617;SDS011;18207;32.078;34.818;2023-02-28T02:25:56;3.42;;;2.40;;
23617;SDS011;18207;32.078;34.818;2023-02-28T02:32:18;2.70;;;2.50;;
23617;SDS011;18207;32.078;34.818;2023-02-28T02:35:34;2.75;;;2.30;;
23617;SDS011;18207;32.078;34.818;2023-02-28T02:38:17;2.60;;;2.40;;
23617;SDS011;18207;32.078;34.818;2023-02-28T02:41:05;2.95;;;2.40;;
23617;SDS011;18207;32.078;34.818;2023-02-28T02:43:46;4.05;;;2.60;;
23617;SDS011;18207;32.078;34.818;2023-02-28T02:46:26;2.67;;;2.47;;
23617;SDS011;18207;32.078;34.818;2023-02-28T02:49:00;2.80;;;2.30;;
23617;SDS011;18207;32.078;34.818;2023-02-28T02:51:52;2.50;;;2.30;;
23617;SDS011;18207;32.078;34.818;2023-02-28T02:54:27;2.60;;;2.40;;
23617;SDS011;18207;32.078;34.818;2023-02-28T02:57:05;2.67;;;2.40;;
23617;SDS011;18207;32.078;34.818;2023-02-28T02:59:40;2.58;;;2.38;;
23617;SDS011;18207;32.078;34.818;2023-02-28T03:02:12;2.83;;;2.42;;
23617;SDS011;18207;32.078;34.818;2023-02-28T03:04:46;2.90;;;2.60;;
23617;SDS011;18207;32.078;34.818;2023-02-28T03:07:23;3.05;;;2.65;;
23617;SDS011;18207;32.078;34.818;2023-02-28T03:09:56;3.08;;;2.78;;
23617;SDS011;18207;32.078;34.818;2023-02-28T03:12:31;2.85;;;2.63;;
23617;SDS011;18207;32.078;34.818;2023-02-28T03:15:10;2.38;;;2.25;;
23617;SDS011;18207;32.078;34.818;2023-02-28T03:17:57;2.60;;;2.40;;
23617;SDS011;18207;32.078;34.818;2023-02-28T03:20:38;2.55;;;2.35;;
23617;SDS011;18207;32.078;34.818;2023-02-28T03:23:27;2.65;;;2.45;;
23617;SDS011;18207;32.078;34.818;2023-02-28T03:26:09;3.75;;;2.67;;
23617;SDS011;18207;32.078;34.818;2023-02-28T03:28:52;2.70;;;2.50;;
23617;SDS011;18207;32.078;34.818;2023-02-28T03:31:36;2.30;;;2.10;;
23617;SDS011;18207;32.078;34.818;2023-02-28T03:34:13;2.65;;;2.33;;
23617;SDS011;18207;32.078;34.818;2023-02-28T03:36:53;2.72;;;2.53;;
23617;SDS011;18207;32.078;34.818;2023-02-28T03:39:34;2.58;;;2.38;;
23617;SDS011;18207;32.078;34.818;2023-02-28T03:42:09;3.00;;;2.25;;
23617;SDS011;18207;32.078;34.818;2023-02-28T03:44:46;2.50;;;2.25;;
23617;SDS011;18207;32.078;34.818;2023-02-28T03:47:25;4.13;;;2.30;;
23617;SDS011;18207;32.078;34.818;2023-02-28T03:50:02;3.08;;;2.33;;
23617;SDS011;18207;32.078;34.818;2023-02-28T03:52:42;2.63;;;2.40;;
23617;SDS011;18207;32.078;34.818;2023-02-28T03:55:21;2.97;;;2.55;;
23617;SDS011;18207;32.078;34.818;2023-02-28T03:57:55;2.50;;;2.30;;
23617;SDS011;18207;32.078;34.818;2023-02-28T04:00:34;2.50;;;2.15;;
23617;SDS011;18207;32.078;34.818;2023-02-28T04:03:08;2.92;;;2.30;;
23617;SDS011;18207;32.078;34.818;2023-02-28T04:05:45;2.55;;;2.35;;
23617;SDS011;18207;32.078;34.818;2023-02-28T04:08:21;2.50;;;2.33;;
23617;SDS011;18207;32.078;34.818;2023-02-28T04:10:55;3.05;;;2.40;;
23617;SDS011;18207;32.078;34.818;2023-02-28T04:13:32;2.50;;;2.30;;
23617;SDS011;18207;32.078;34.818;2023-02-28T04:16:06;3.53;;;2.28;;
23617;SDS011;18207;32.078;34.818;2023-02-28T04:18:57;2.50;;;2.30;;
23617;SDS011;18207;32.078;34.818;2023-02-28T04:21:33;3.10;;;2.40;;
23617;SDS011;18207;32.078;34.818;2023-02-28T04:24:08;2.38;;;2.17;;
23617;SDS011;18207;32.078;34.818;2023-02-28T04:26:44;2.45;;;2.25;;
23617;SDS011;18207;32.078;34.818;2023-02-28T04:29:25;2.55;;;2.35;;
23617;SDS011;18207;32.078;34.818;2023-02-28T04:31:59;2.70;;;2.50;;
23617;SDS011;18207;32.078;34.818;2023-02-28T04:34:31;2.70;;;2.50;;
23617;SDS011;18207;32.078;34.818;2023-02-28T04:37:01;2.60;;;2.40;;
23617;SDS011;18207;32.078;34.818;2023-02-28T04:39:39;3.53;;;2.40;;
23617;SDS011;18207;32.078;34.818;2023-02-28T04:42:13;3.40;;;2.33;;
23617;SDS011;18207;32.078;34.818;2023-02-28T04:44:45;3.50;;;2.20;;
23617;SDS011;18207;32.078;34.818;2023-02-28T04:47:16;2.55;;;2.35;;
23617;SDS011;18207;32.078;34.818;2023-02-28T04:49:46;2.58;;;2.38;;
23617;SDS011;18207;32.078;34.818;2023-02-28T04:52:16;2.33;;;2.13;;
23617;SDS011;18207;32.078;34.818;2023-02-28T04:54:47;2.70;;;2.50;;
23617;SDS011;18207;32.078;34.818;2023-02-28T04:57:19;2.50;;;2.30;;
23617;SDS011;18207;32.078;34.818;2023-02-28T04:59:50;2.60;;;2.38;;
23617;SDS011;18207;32.078;34.818;2023-02-28T05:02:20;2.50;;;2.30;;
23617;SDS011;18207;32.078;34.818;2023-02-28T05:04:54;2.60;;;2.40;;
23617;SDS011;18207;32.078;34.818;2023-02-28T05:07:24;2.30;;;2.10;;
23617;SDS011;18207;32.078;34.818;2023-02-28T05:09:55;2.42;;;2.22;;
23617;SDS011;18207;32.078;34.818;2023-02-28T05:12:29;2.50;;;2.30;;
23617;SDS011;18207;32.078;34.818;2023-02-28T05:14:59;2.50;;;2.30;;
23617;SDS011;18207;32.078;34.818;2023-02-28T05:17:31;2.50;;;2.30;;
23617;SDS011;18207;32.078;34.818;2023-02-28T05:20:01;2.53;;;2.33;;
23617;SDS011;18207;32.078;34.818;2023-02-28T05:22:41;2.50;;;2.28;;
23617;SDS011;18207;32.078;34.818;2023-02-28T05:25:13;2.08;;;1.95;;
23617;SDS011;18207;32.078;34.818;2023-02-28T05:27:51;2.47;;;2.28;;
23617;SDS011;18207;32.078;34.818;2023-02-28T05:30:21;2.50;;;2.30;;
23617;SDS011;18207;32.078;34.818;2023-02-28T05:32:51;2.63;;;2.40;;
23617;SDS011;18207;32.078;34.818;2023-02-28T05:35:21;2.65;;;2.45;;
23617;SDS011;18207;32.078;34.818;2023-02-28T05:37:53;2.63;;;2.38;;
23617;SDS011;18207;32.078;34.818;2023-02-28T05:40:23;2.42;;;2.22;;
23617;SDS011;18207;32.078;34.818;2023-02-28T05:42:56;3.13;;;2.30;;
23617;SDS011;18207;32.078;34.818;2023-02-28T05:45:26;2.25;;;2.03;;
23617;SDS011;18207;32.078;34.818;2023-02-28T05:47:57;2.55;;;2.35;;
23617;SDS011;18207;32.078;34.818;2023-02-28T05:50:27;3.45;;;2.60;;
23617;SDS011;18207;32.078;34.818;2023-02-28T05:52:58;3.65;;;2.50;;
23617;SDS011;18207;32.078;34.818;2023-02-28T05:55:28;2.70;;;2.42;;
23617;SDS011;18207;32.078;34.818;2023-02-28T05:58:01;2.42;;;2.10;;
23617;SDS011;18207;32.078;34.818;2023-02-28T06:00:32;2.50;;;2.17;;
23617;SDS011;18207;32.078;34.818;2023-02-28T06:03:03;2.40;;;2.20;;
23617;SDS011;18207;32.078;34.818;2023-02-28T06:05:33;3.40;;;2.40;;
23617;SDS011;18207;32.078;34.818;2023-02-28T06:08:05;2.67;;;2.35;;
23617;SDS011;18207;32.078;34.818;2023-02-28T06:10:36;2.25;;;2.05;;
23617;SDS011;18207;32.078;34.818;2023-02-28T06:13:08;4.57;;;2.30;;
23617;SDS011;18207;32.078;34.818;2023-02-28T06:15:39;2.13;;;1.95;;
23617;SDS011;18207;32.078;34.818;2023-02-28T06:18:10;2.58;;;2.20;;
23617;SDS011;18207;32.078;34.818;2023-02-28T06:20:40;2.30;;;2.10;;
23617;SDS011;18207;32.078;34.818;2023-02-28T06:23:11;2.08;;;1.98;;
23617;SDS011;18207;32.078;34.818;2023-02-28T06:25:44;2.13;;;1.98;;
23617;SDS011;18207;32.078;34.818;2023-02-28T06:28:18;2.20;;;1.92;;
23617;SDS011;18207;32.078;34.818;2023-02-28T06:30:49;2.25;;;1.92;;
23617;SDS011;18207;32.078;34.818;2023-02-28T06:33:20;2.47;;;2.00;;
23617;SDS011;18207;32.078;34.818;2023-02-28T06:35:52;2.72;;;2.20;;
23617;SDS011;18207;32.078;34.818;2023-02-28T06:38:24;2.60;;;2.22;;
23617;SDS011;18207;32.078;34.818;2023-02-28T06:40:55;2.53;;;2.28;;
23617;SDS011;18207;32.078;34.818;2023-02-28T06:43:32;2.20;;;2.10;;
23617;SDS011;18207;32.078;34.818;2023-02-28T06:46:06;2.45;;;2.25;;
23617;SDS011;18207;32.078;34.818;2023-02-28T06:48:40;3.40;;;2.60;;
23617;SDS011;18207;32.078;34.818;2023-02-28T06:51:12;2.85;;;2.60;;
23617;SDS011;18207;32.078;34.818;2023-02-28T06:53:47;3.15;;;2.80;;
23617;SDS011;18207;32.078;34.818;2023-02-28T06:56:19;2.80;;;2.60;;
23617;SDS011;18207;32.078;34.818;2023-02-28T06:58:53;3.80;;;2.65;;
23617;SDS011;18207;32.078;34.818;2023-02-28T07:01:23;3.00;;;2.72;;
23617;SDS011;18207;32.078;34.818;2023-02-28T07:03:55;2.35;;;2.05;;
23617;SDS011;18207;32.078;34.818;2023-02-28T07:06:27;2.65;;;2.45;;
23617;SDS011;18207;32.078;34.818;2023-02-28T07:08:58;2.63;;;2.30;;
23617;SDS011;18207;32.078;34.818;2023-02-28T07:11:31;4.80;;;2.40;;
23617;SDS011;18207;32.078;34.818;2023-02-28T07:14:04;3.10;;;2.58;;
23617;SDS011;18207;32.078;34.818;2023-02-28T07:16:35;3.22;;;2.92;;
23617;SDS011;18207;32.078;34.818;2023-02-28T07:19:06;2.70;;;2.50;;
23617;SDS011;18207;32.078;34.818;2023-02-28T07:21:36;2.95;;;2.75;;
23617;SDS011;18207;32.078;34.818;2023-02-28T07:24:07;3.40;;;3.10;;
23617;SDS011;18207;32.078;34.818;2023-02-28T07:26:38;4.85;;;3.15;;
23617;SDS011;18207;32.078;34.818;2023-02-28T07:29:14;4.22;;;3.15;;
23617;SDS011;18207;32.078;34.818;2023-02-28T07:31:45;3.40;;;3.10;;
23617;SDS011;18207;32.078;34.818;2023-02-28T07:34:17;3.75;;;2.92;;
23617;SDS011;18207;32.078;34.818;2023-02-28T07:36:47;3.00;;;2.70;;
23617;SDS011;18207;32.078;34.818;2023-02-28T07:39:20;3.33;;;3.00;;
23617;SDS011;18207;32.078;34.818;2023-02-28T07:41:50;3.30;;;2.70;;
23617;SDS011;18207;32.078;34.818;2023-02-28T07:44:23;2.60;;;2.40;;
23617;SDS011;18207;32.078;34.818;2023-02-28T07:46:53;2.88;;;2.67;;
23617;SDS011;18207;32.078;34.818;2023-02-28T07:49:24;3.67;;;3.30;;
23617;SDS011;18207;32.078;34.818;2023-02-28T07:51:53;3.10;;;2.80;;
23617;SDS011;18207;32.078;34.818;2023-02-28T07:54:24;2.58;;;2.38;;
23617;SDS011;18207;32.078;34.818;2023-02-28T07:56:54;2.72;;;2.53;;
23617;SDS011;18207;32.078;34.818;2023-02-28T07:59:27;2.83;;;2.60;;
23617;SDS011;18207;32.078;34.818;2023-02-28T08:01:58;2.92;;;2.50;;
23617;SDS011;18207;32.078;34.818;2023-02-28T08:04:31;4.07;;;2.40;;
23617;SDS011;18207;32.078;34.818;2023-02-28T08:07:02;2.80;;;2.60;;
23617;SDS011;18207;32.078;34.818;2023-02-28T08:09:32;2.50;;;2.40;;
23617;SDS011;18207;32.078;34.818;2023-02-28T08:12:03;2.97;;;2.70;;
23617;SDS011;18207;32.078;34.818;2023-02-28T08:14:36;2.63;;;2.42;;
23617;SDS011;18207;32.078;34.818;2023-02-28T08:17:08;3.55;;;2.55;;
23617;SDS011;18207;32.078;34.818;2023-02-28T08:19:40;2.65;;;2.45;;
23617;SDS011;18207;32.078;34.818;2023-02-28T08:22:11;2.60;;;2.40;;
23617;SDS011;18207;32.078;34.818;2023-02-28T08:24:42;3.10;;;2.90;;
23617;SDS011;18207;32.078;34.818;2023-02-28T08:27:13;3.60;;;3.30;;
23617;SDS011;18207;32.078;34.818;2023-02-28T08:29:47;4.28;;;2.75;;
23617;SDS011;18207;32.078;34.818;2023-02-28T08:32:17;3.45;;;3.10;;
23617;SDS011;18207;32.078;34.818;2023-02-28T08:34:56;4.18;;;3.20;;
23617;SDS011;18207;32.078;34.818;2023-02-28T08:37:27;3.50;;;3.05;;
23617;SDS011;18207;32.078;34.818;2023-02-28T08:40:01;3.38;;;3.00;;
23617;SDS011;18207;32.078;34.818;2023-02-28T08:42:33;3.10;;;2.88;;
23617;SDS011;18207;32.078;34.818;2023-02-28T08:47:51;2.80;;;2.60;;
23617;SDS011;18207;32.078;34.818;2023-02-28T08:50:24;3.55;;;2.92;;
23617;SDS011;18207;32.078;34.818;2023-02-28T08:52:54;3.42;;;3.13;;
23617;SDS011;18207;32.078;34.818;2023-02-28T08:55:25;3.00;;;2.70;;
23617;SDS011;18207;32.078;34.818;2023-02-28T08:57:56;2.58;;;2.38;;
23617;SDS011;18207;32.078;34.818;2023-02-28T09:00:30;2.92;;;2.58;;
23617;SDS011;18207;32.078;34.818;2023-02-28T09:03:00;2.53;;;2.33;;
23617;SDS011;18207;32.078;34.818;2023-02-28T09:05:33;4.47;;;2.88;;
23617;SDS011;18207;32.078;34.818;2023-02-28T09:08:04;3.28;;;2.70;;
23617;SDS011;18207;32.078;34.818;2023-02-28T09:10:35;3.75;;;2.85;;
23617;SDS011;18207;32.078;34.818;2023-02-28T09:13:06;3.28;;;2.70;;
23617;SDS011;18207;32.078;34.818;2023-02-28T09:15:38;3.00;;;2.70;;
23617;SDS011;18207;32.078;34.818;2023-02-28T09:18:10;3.35;;;3.15;;
23617;SDS011;18207;32.078;34.818;2023-02-28T09:20:41;3.33;;;2.95;;
23617;SDS011;18207;32.078;34.818;2023-02-28T09:23:12;3.33;;;2.65;;
23617;SDS011;18207;32.078;34.818;2023-02-28T09:25:46;2.90;;;2.70;;
23617;SDS011;18207;32.078;34.818;2023-02-28T09:28:18;2.90;;;2.70;;
23617;SDS011;18207;32.078;34.818;2023-02-28T09:30:52;3.10;;;2.58;;
23617;SDS011;18207;32.078;34.818;2023-02-28T09:33:24;4.80;;;2.60;;
23617;SDS011;18207;32.078;34.818;2023-02-28T09:36:00;2.50;;;2.30;;
23617;SDS011;18207;32.078;34.818;2023-02-28T09:38:31;2.45;;;2.25;;
23617;SDS011;18207;32.078;34.818;2023-02-28T09:41:03;3.28;;;2.40;;
23617;SDS011;18207;32.078;34.818;2023-02-28T09:43:43;2.72;;;2.50;;
23617;SDS011;18207;32.078;34.818;2023-02-28T09:46:24;3.10;;;2.50;;
23617;SDS011;18207;32.078;34.818;2023-02-28T09:49:05;2.78;;;2.55;;
23617;SDS011;18207;32.078;34.818;2023-02-28T09:51:43;3.20;;;2.90;;
23617;SDS011;18207;32.078;34.818;2023-02-28T09:54:22;2.90;;;2.70;;
23617;SDS011;18207;32.078;34.818;2023-02-28T09:56:57;3.22;;;2.63;;
23617;SDS011;18207;32.078;34.818;2023-02-28T09:59:48;2.50;;;2.30;;
23617;SDS011;18207;32.078;34.818;2023-02-28T10:05:52;2.63;;;2.42;;
23617;SDS011;18207;32.078;34.818;2023-02-28T10:08:32;2.72;;;2.38;;
23617;SDS011;18207;32.078;34.818;2023-02-28T10:11:10;2.45;;;2.20;;
23617;SDS011;18207;32.078;34.818;2023-02-28T10:13:51;2.97;;;2.40;;
23617;SDS011;18207;32.078;34.818;2023-02-28T10:16:30;2.85;;;2.65;;
23617;SDS011;18207;32.078;34.818;2023-02-28T10:19:09;2.50;;;2.30;;
23617;SDS011;18207;32.078;34.818;2023-02-28T10:21:50;4.20;;;2.70;;
23617;SDS011;18207;32.078;34.818;2023-02-28T10:24:29;2.58;;;2.38;;
23617;SDS011;18207;32.078;34.818;2023-02-28T10:27:09;4.32;;;2.67;;
23617;SDS011;18207;32.078;34.818;2023-02-28T10:29:48;3.47;;;2.70;;
23617;SDS011;18207;32.078;34.818;2023-02-28T10:32:25;3.22;;;2.70;;
23617;SDS011;18207;32.078;34.818;2023-02-28T10:35:06;3.85;;;2.80;;
23617;SDS011;18207;32.078;34.818;2023-02-28T10:37:45;3.20;;;2.60;;
23617;SDS011;18207;32.078;34.818;2023-02-28T10:40:26;3.10;;;2.85;;
23617;SDS011;18207;32.078;34.818;2023-02-28T10:43:02;2.80;;;2.55;;
23617;SDS011;18207;32.078;34.818;2023-02-28T10:45:35;3.30;;;3.00;;
23617;SDS011;18207;32.078;34.818;2023-02-28T10:48:06;4.55;;;3.08;;
23617;SDS011;18207;32.078;34.818;2023-02-28T10:51:03;3.42;;;2.72;;
23617;SDS011;18207;32.078;34.818;2023-02-28T10:53:45;3.08;;;2.78;;
23617;SDS011;18207;32.078;34.818;2023-02-28T10:56:28;2.60;;;2.40;;
23617;SDS011;18207;32.078;34.818;2023-02-28T10:59:00;4.38;;;2.85;;
23617;SDS011;18207;32.078;34.818;2023-02-28T11:01:51;3.05;;;2.80;;
23617;SDS011;18207;32.078;34.818;2023-02-28T11:04:32;3.10;;;2.67;;
23617;SDS011;18207;32.078;34.818;2023-02-28T11:07:16;3.05;;;2.63;;
23617;SDS011;18207;32.078;34.818;2023-02-28T11:09:53;2.55;;;2.33;;
23617;SDS011;18207;32.078;34.818;2023-02-28T11:12:28;2.65;;;2.38;;
23617;SDS011;18207;32.078;34.818;2023-02-28T11:15:20;2.45;;;2.25;;
23617;SDS011;18207;32.078;34.818;2023-02-28T11:17:54;2.53;;;2.33;;
23617;SDS011;18207;32.078;34.818;2023-02-28T11:20:30;2.38;;;2.17;;
23617;SDS011;18207;32.078;34.818;2023-02-28T11:23:06;2.75;;;2.40;;
23617;SDS011;18207;32.078;34.818;2023-02-28T11:25:47;2.42;;;2.10;;
23617;SDS011;18207;32.078;34.818;2023-02-28T11:28:25;2.60;;;2.40;;
23617;SDS011;18207;32.078;34.818;2023-02-28T11:31:01;2.53;;;2.20;;
23617;SDS011;18207;32.078;34.818;2023-02-28T11:33:44;3.47;;;2.30;;
23617;SDS011;18207;32.078;34.818;2023-02-28T11:36:18;3.42;;;2.30;;
23617;SDS011;18207;32.078;34.818;2023-02-28T11:38:59;2.67;;;2.20;;
23617;SDS011;18207;32.078;34.818;2023-02-28T11:41:40;2.30;;;2.10;;
23617;SDS011;18207;32.078;34.818;2023-02-28T11:44:35;2.20;;;2.00;;
23617;SDS011;18207;32.078;34.818;2023-02-28T11:47:44;2.47;;;1.85;;
23617;SDS011;18207;32.078;34.818;2023-02-28T11:50:27;2.05;;;1.90;;
23617;SDS011;18207;32.078;34.818;2023-02-28T11:53:14;2.20;;;2.00;;
23617;SDS011;18207;32.078;34.818;2023-02-28T11:55:59;2.20;;;2.00;;
23617;SDS011;18207;32.078;34.818;2023-02-28T11:58:40;2.17;;;1.98;;
23617;SDS011;18207;32.078;34.818;2023-02-28T12:01:27;2.13;;;1.90;;
23617;SDS011;18207;32.078;34.818;2023-02-28T12:04:16;1.88;;;1.77;;
23617;SDS011;18207;32.078;34.818;2023-02-28T12:06:57;2.30;;;2.10;;
23617;SDS011;18207;32.078;34.818;2023-02-28T12:09:45;2.15;;;1.95;;
23617;SDS011;18207;32.078;34.818;2023-02-28T12:12:33;2.28;;;2.05;;
23617;SDS011;18207;32.078;34.818;2023-02-28T12:15:24;2.08;;;1.80;;
23617;SDS011;18207;32.078;34.818;2023-02-28T12:18:41;2.30;;;2.00;;
23617;SDS011;18207;32.078;34.818;2023-02-28T12:21:42;1.90;;;1.70;;
23617;SDS011;18207;32.078;34.818;2023-02-28T12:28:00;2.25;;;2.08;;
23617;SDS011;18207;32.078;34.818;2023-02-28T12:30:34;2.38;;;2.17;;
23617;SDS011;18207;32.078;34.818;2023-02-28T12:33:11;2.92;;;2.15;;
23617;SDS011;18207;32.078;34.818;2023-02-28T12:35:48;3.67;;;3.25;;
23617;SDS011;18207;32.078;34.818;2023-02-28T12:38:30;4.10;;;2.63;;
23617;SDS011;18207;32.078;34.818;2023-02-28T12:41:11;12.55;;;9.27;;
23617;SDS011;18207;32.078;34.818;2023-02-28T12:43:55;11.48;;;8.40;;
23617;SDS011;18207;32.078;34.818;2023-02-28T12:46:32;11.93;;;8.95;;
23617;SDS011;18207;32.078;34.818;2023-02-28T12:49:10;6.93;;;6.10;;
23617;SDS011;18207;32.078;34.818;2023-02-28T12:51:47;5.15;;;4.45;;
23617;SDS011;18207;32.078;34.818;2023-02-28T12:54:21;4.95;;;3.67;;
23617;SDS011;18207;32.078;34.818;2023-02-28T12:57:00;5.88;;;4.50;;
23617;SDS011;18207;32.078;34.818;2023-02-28T12:59:45;6.03;;;3.47;;
23617;SDS011;18207;32.078;34.818;2023-02-28T13:02:32;3.15;;;2.85;;
23617;SDS011;18207;32.078;34.818;2023-02-28T13:11:43;2.60;;;2.40;;
23617;SDS011;18207;32.078;34.818;2023-02-28T13:14:25;3.22;;;2.30;;
23617;SDS011;18207;32.078;34.818;2023-02-28T13:17:01;4.32;;;2.38;;
23617;SDS011;18207;32.078;34.818;2023-02-28T13:19:42;3.00;;;2.45;;
23617;SDS011;18207;32.078;34.818;2023-02-28T13:22:18;2.60;;;2.40;;
23617;SDS011;18207;32.078;34.818;2023-02-28T13:38:15;2.17;;;2.00;;
23617;SDS011;18207;32.078;34.818;2023-02-28T13:44:17;2.40;;;2.20;;
23617;SDS011;18207;32.078;34.818;2023-02-28T13:56:27;1.83;;;1.70;;
23617;SDS011;18207;32.078;34.818;2023-02-28T13:59:17;2.75;;;2.55;;
23617;SDS011;18207;32.078;34.818;2023-02-28T14:02:09;2.05;;;1.90;;
23617;SDS011;18207;32.078;34.818;2023-02-28T14:05:13;3.40;;;2.15;;
23617;SDS011;18207;32.078;34.818;2023-02-28T14:07:54;2.40;;;2.20;;
23617;SDS011;18207;32.078;34.818;2023-02-28T14:10:30;2.75;;;2.10;;
23617;SDS011;18207;32.078;34.818;2023-02-28T14:13:13;2.95;;;2.13;;
23617;SDS011;18207;32.078;34.818;2023-02-28T14:16:12;2.08;;;1.90;;
23617;SDS011;18207;32.078;34.818;2023-02-28T14:18:48;2.33;;;2.10;;
23617;SDS011;18207;32.078;34.818;2023-02-28T14:21:26;2.33;;;2.13;;
23617;SDS011;18207;32.078;34.818;2023-02-28T14:27:41;2.83;;;2.28;;
23617;SDS011;18207;32.078;34.818;2023-02-28T14:30:29;2.25;;;2.05;;
23617;SDS011;18207;32.078;34.818;2023-02-28T14:33:39;1.85;;;1.75;;
23617;SDS011;18207;32.078;34.818;2023-02-28T14:36:31;2.45;;;2.00;;
23617;SDS011;18207;32.078;34.818;2023-02-28T14:39:05;2.35;;;2.15;;
23617;SDS011;18207;32.078;34.818;2023-02-28T14:41:43;2.47;;;2.20;;
23617;SDS011;18207;32.078;34.818;2023-02-28T14:44:16;2.50;;;2.30;;
23617;SDS011;18207;32.078;34.818;2023-02-28T14:46:49;2.33;;;2.10;;
23617;SDS011;18207;32.078;34.818;2023-02-28T14:49:24;2.40;;;2.17;;
23617;SDS011;18207;32.078;34.818;2023-02-28T14:52:03;2.88;;;2.00;;
23617;SDS011;18207;32.078;34.818;2023-02-28T14:54:42;6.35;;;2.25;;
23617;SDS011;18207;32.078;34.818;2023-02-28T14:57:25;2.35;;;1.98;;
23617;SDS011;18207;32.078;34.818;2023-02-28T14:59:59;2.25;;;2.10;;
23617;SDS011;18207;32.078;34.818;2023-02-28T15:02:34;2.88;;;2.28;;
23617;SDS011;18207;32.078;34.818;2023-02-28T15:05:16;3.00;;;2.13;;
23617;SDS011;18207;32.078;34.818;2023-02-28T15:08:04;1.92;;;1.83;;
23617;SDS011;18207;32.078;34.818;2023-02-28T15:10:41;2.85;;;2.10;;
23617;SDS011;18207;32.078;34.818;2023-02-28T15:13:21;2.22;;;2.03;;
23617;SDS011;18207;32.078;34.818;2023-02-28T15:15:59;1.85;;;1.75;;
23617;SDS011;18207;32.078;34.818;2023-02-28T15:18:35;3.03;;;2.10;;
23617;SDS011;18207;32.078;34.818;2023-02-28T15:21:17;1.90;;;1.80;;
23617;SDS011;18207;32.078;34.818;2023-02-28T15:23:53;2.17;;;1.77;;
23617;SDS011;18207;32.078;34.818;2023-02-28T15:26:29;2.17;;;2.03;;
23617;SDS011;18207;32.078;34.818;2023-02-28T15:29:11;2.30;;;2.10;;
23617;SDS011;18207;32.078;34.818;2023-02-28T15:31:47;2.55;;;2.20;;
23617;SDS011;18207;32.078;34.818;2023-02-28T15:34:26;2.38;;;2.17;;
23617;SDS011;18207;32.078;34.818;2023-02-28T15:37:29;2.45;;;2.20;;
23617;SDS011;18207;32.078;34.818;2023-02-28T15:40:12;2.15;;;1.95;;
23617;SDS011;18207;32.078;34.818;2023-02-28T15:42:59;2.60;;;2.03;;
23617;SDS011;18207;32.078;34.818;2023-02-28T15:45:38;2.60;;;2.17;;
23617;SDS011;18207;32.078;34.818;2023-02-28T15:48:16;1.88;;;1.77;;
23617;SDS011;18207;32.078;34.818;2023-02-28T15:50:51;2.00;;;1.90;;
23617;SDS011;18207;32.078;34.818;2023-02-28T15:53:26;2.58;;;1.95;;
23617;SDS011;18207;32.078;34.818;2023-02-28T15:56:03;1.88;;;1.77;;
23617;SDS011;18207;32.078;34.818;2023-02-28T15:58:44;3.15;;;2.13;;
23617;SDS011;18207;32.078;34.818;2023-02-28T16:01:23;2.20;;;2.10;;
23617;SDS011;18207;32.078;34.818;2023-02-28T16:03:58;2.28;;;2.08;;
23617;SDS011;18207;32.078;34.818;2023-02-28T16:06:38;2.25;;;2.05;;
23617;SDS011;18207;32.078;34.818;2023-02-28T16:09:11;3.55;;;2.20;;
23617;SDS011;18207;32.078;34.818;2023-02-28T16:11:45;2.45;;;2.20;;
23617;SDS011;18207;32.078;34.818;2023-02-28T16:14:18;2.28;;;2.00;;
23617;SDS011;18207;32.078;34.818;2023-02-28T16:16:56;2.83;;;2.15;;
23617;SDS011;18207;32.078;34.818;2023-02-28T16:19:35;2.28;;;2.10;;